Warning: Javascript must be enabled to use all the features on this page!


Page Loading - Please Wait...

Click to hideNews Bulletins

Peak Streamflow for the Nation

USGS 10311400 CARSON RV AT DEER RUN RD NR CARSON CITY, NV

Carson City, Nevada
Hydrologic Unit Code 16050201
Latitude  39°10'52.96", Longitude 119°41'41.53" NAD83
Drainage area 958  square miles
Gage datum 4,600 feet above NGVD29
Output formats
Table
Graph
Tab-separated file
peakfq (watstore) format
Reselect output format
Water
Year
Date Gage
Height
(feet)
Stream-
flow
(cfs)
1980 1980-01-15 13.50 7,6505
1981 1981-05-01 6.97 1,2805
1982 1982-02-17 13.22 6,4005
1983 1983-05-31 12.79 6,9005
1984 1983-11-25 10.46 4,0505
1985 1985-04-16 7.83 1,7705
1991 1991-05-26 6.98 1,1405
1992 1991-10-27 5.46 4625
1993 1993-05-21 9.54 2,8905
1994 1994-05-12 6.78 9075
1995 1995-03-12 13.77 6,7005
1996 1996-05-17 11.81 4,7805
1997 1997-01-03 24.23 24,0005
1998 1998-03-25 11.35 4,0905
1999 1999-05-29 10.62 3,4005
2000 2000-05-25 8.48 1,7805
2001 2001-05-12 7.17 1,1305
2002 2002-04-15 7.80 1,4405
2003 2003-05-30 9.76 2,9005
2004 2004-05-06 7.18 1,1705
2005 2005-05-21 11.446 4,6005
2006 2006-01-01 17.44 11,4005
2007 2007-04-30 5.67 6185
2008 2008-05-19 7.58 1,5105
2009 2009-05-04 8.65 2,1305
2010 2010-06-07 10.18 3,3605
2011 2011-06-17 10.57 3,7005
2012 2012-04-27 7.41 1,4205
2013 2012-12-03 7.54 1,5005
2014 2014-02-10 6.476 9085
2015 2015-02-09 7.19 1,1705
2016 2016-05-14 8.48 1,9505
2017 2017-02-11 17.94 10,8005
2018 2018-04-09 12.67 4,8205
2019 2019-02-15 11.41 3,9205
2020 2020-04-30 7.64 1,4205
2021 2021-05-07 5.68 5095
?
  Peak Gage-Height Qualification Codes.
?
  Peak Streamflow Qualification Codes.